Norwegian Star — C6FR3 — position and weather

sailwx.info

Track history (hours):
 
Tides and Currents Weather Stations Pressure Air Temp Water Temp Dewpoint Dewpoint Depression Visibility Wind Speed Wind Dir Waves Ship Positions

Norwegian Star

Operator: Norwegian Cruise Line

Last reported at 2018-Feb-24 17:00 UTC. Time now 2018-Feb-24 23:44 UTC.
Position N 13°54' W 090°48'.

Type: Ship. MMSI: 311082000.

Wind from 120 at 5 knots

Barometer 1012.0 mb
Air temperature 28.4 ° C
Visibility: greater than 5.4 NM

Date/timePositionNaut miles runAvg speedWind from/ knotsBaromVisibWave heightAir tempDewpointWater temp
2018-Feb-24 17:00N 13°54' W 090°48'74 9.2 120 / 51012.0 5.4 28.4
2018-Feb-24 09:00N 13°18' W 089°42'6321.1 290 / 51013.3 28.0 28.0
2018-Feb-24 06:00N 12°54' W 088°42'91 7.0 090 / 251012.010.8 27.0
2018-Feb-23 17:00N 12°30' W 087°12'12614.0 090 / 281014.010.8 30.8
2018-Feb-23 08:00N 10°36' W 086°18'4013.4 050 / 361011.8 26.0 26.0
2018-Feb-23 05:00N 10°00' W 086°00'71 5.5 040 / 32 5.4 27.0
2018-Feb-22 16:00N 10°00' W 084°48'38 5.4 090 / 171012.110.8 32.0
2018-Feb-22 09:00N 09°24' W 084°36'4812.1 270 / 91010.3 28.0 28.0
2018-Feb-22 05:00N 08°42' W 084°12'8011.5 270 / 121011.0 28.0
2018-Feb-21 22:00N 07°48' W 083°12'3511.6 250 / 171011.010.8 28.4 30.0
2018-Feb-21 19:00N 07°30' W 082°42'4816.0 190 / 81011.3 28.0 28.0
2018-Feb-21 16:00N 07°06' W 082°00'19 9.4 070 / 211013.310.8 28.0 29.0
2018-Feb-21 14:00N 07°00' W 081°42'10212.7 070 / 121013.010.8 26.8 29.0
2018-Feb-21 06:00N 07°12' W 080°00'3416.9 350 / 211012.8 24.0 24.0
2018-Feb-21 04:00N 07°36' W 079°36'96 7.6 010 / 181010.0 24.0
2018-Feb-20 15:24N 09°11' W 079°52'511.5
2018-Feb-20 15:00N 09°14' W 079°55'2 3.9
2018-Feb-20 14:31N 09°16' W 079°55'0 0.2
2018-Feb-20 14:00N 09°16' W 079°55'0 0.4
2018-Feb-20 13:20N 09°17' W 079°55'0 0.4
2018-Feb-20 13:00N 09°17' W 079°55'0 0.7
2018-Feb-20 12:30N 09°17' W 079°55'2 3.3
2018-Feb-20 12:01N 09°19' W 079°55'3 5.7
2018-Feb-20 11:31N 09°21' W 079°55'3 6.3
2018-Feb-20 11:00N 09°25' W 079°55'612.0
2018-Feb-20 10:30N 09°30' W 079°54'816.1
2018-Feb-20 10:00N 09°38' W 079°51'6421.2
2018-Feb-20 07:00N 09°54' W 078°48'5417.8 020 / 211012.3 26.0 26.0
2018-Feb-20 04:00N 10°00' W 077°54'8917.9 030 / 351009.0 5.4 26.0
2018-Feb-19 23:00N 10°12' W 076°24'54 9.1 050 / 321010.010.8 26.026.026.0
2018-Feb-19 17:00N 10°24' W 075°30'60 6.7 320 / 121009.0 31.8 31.0
2018-Feb-19 08:00N 11°24' W 075°36'4210.6 110 / 171009.2 25.0
2018-Feb-19 04:00N 12°06' W 075°30'8517.0 060 / 501013.0 5.4 25.0 25.0
2018-Feb-18 23:00N 13°30' W 075°18'10921.7 090 / 451013.010.8 23.023.025.0
2018-Feb-18 18:00N 15°18' W 075°06'1818.0 080 / 371015.2 26.0 26.0
2018-Feb-18 17:00N 15°36' W 075°06'12120.1 070 / 331017.0 5.4 25.7 27.0
2018-Feb-18 11:00N 17°36' W 074°54'9318.6 080 / 301017.010.8 25.025.027.0
2018-Feb-18 06:00N 19°06' W 074°30'4823.9 050 / 191019.0 26.0 26.0
2018-Feb-18 04:00N 19°48' W 074°06'6115.2 060 / 321020.0 5.4 25.8 27.0
2018-Feb-18 00:00N 20°42' W 074°36'23918.4 090 / 261020.010.8 23.023.022.0
2018-Feb-17 11:00N 22°42' W 078°18'6521.7 090 / 24 10.8 24.023.024.0
2018-Feb-17 08:00N 23°24' W 079°12'10418.2 090 / 201019.1 24.0 24.0
2018-Feb-17 02:17N 25°05' W 079°39'619.2
2018-Feb-17 01:59N 25°11' W 079°40'2318.9
2018-Feb-17 00:48N 25°26' W 079°59'518.2
2018-Feb-17 00:31N 25°31' W 080°01'918.2
2018-Feb-17 00:01N 25°40' W 080°02'713.4
2018-Feb-16 23:30N 25°46' W 080°04'5 9.6
2018-Feb-16 23:00N 25°47' W 080°10'1 1.0
2018-Feb-16 22:28N 25°47' W 080°10'0 0.0
2018-Feb-16 21:58N 25°47' W 080°10'0 0.0
2018-Feb-16 21:25N 25°47' W 080°10'0 0.0
2018-Feb-16 20:55N 25°47' W 080°10'0 0.0
2018-Feb-16 20:25N 25°47' W 080°10'0 0.0
2018-Feb-16 19:55N 25°47' W 080°10'0 0.0
2018-Feb-16 19:28N 25°47' W 080°10'0 0.0
2018-Feb-16 18:58N 25°47' W 080°10'0 0.0
2018-Feb-16 18:25N 25°47' W 080°10'0 0.0
2018-Feb-16 17:58N 25°47' W 080°10'0 0.0
2018-Feb-16 17:28N 25°47' W 080°10'0 0.0
2018-Feb-16 16:55N 25°47' W 080°10'0 0.0
2018-Feb-16 16:28N 25°47' W 080°10'0 0.0
2018-Feb-16 15:58N 25°47' W 080°10'0 0.0
2018-Feb-16 15:28N 25°47' W 080°10'0 0.0
2018-Feb-16 14:55N 25°47' W 080°10'0 0.0
2018-Feb-16 14:28N 25°47' W 080°10'0 0.0
2018-Feb-16 13:58N 25°47' W 080°10'0 0.0
2018-Feb-16 13:28N 25°47' W 080°10'0 0.0
2018-Feb-16 12:52N 25°47' W 080°10'0 0.0
2018-Feb-16 12:28N 25°47' W 080°10'0 0.0
2018-Feb-16 11:58N 25°47' W 080°10'0 0.0
2018-Feb-16 11:27N 25°47' W 080°10'1 1.6
2018-Feb-16 11:00N 25°47' W 080°11'2 4.4
2018-Feb-16 10:30N 25°46' W 080°09'511.2
2018-Feb-16 10:00N 25°46' W 080°03'510.0
2018-Feb-16 09:30N 25°46' W 079°57'612.8
2018-Feb-16 09:00N 25°40' W 079°53'2181.6
2018-Feb-16 09:00N 25°42' W 079°54'919.1 110 / 121020.010.8 22.0 24.0
2018-Feb-16 08:30N 25°33' W 079°51'815.9
2018-Feb-16 08:00N 25°25' W 079°49'816.0
2018-Feb-16 07:30N 25°18' W 079°47'9922.0
2018-Feb-16 03:00N 23°42' W 079°18'11419.0 100 / 241022.0 26.0 26.0
2018-Feb-15 21:00N 22°24' W 077°48'14721.0 050 / 301020.0 5.4 25.0 27.0
2018-Feb-15 14:00N 21°12' W 075°30'10320.7 080 / 301022.1 26.0 26.0
2018-Feb-15 09:00N 20°12' W 074°00'13419.1 090 / 631018.0 5.4 25.0 27.0
2018-Feb-15 02:00N 18°06' W 074°48'7819.6 050 / 341020.1 26.0 26.0
2018-Feb-14 22:00N 16°48' W 074°54'2524.7 090 / 451018.010.8 27.027.026.0
2018-Feb-14 21:00N 16°24' W 075°00'   070 / 571016.0 5.4 27.0 27.0
Track history (hours):
 
Tides and Currents Weather Stations Pressure Air Temp Water Temp Dewpoint Dewpoint Depression Visibility Wind Speed Wind Dir Waves Ship Positions

Norwegian Star

Operator: Norwegian Cruise Line

Last reported at 2018-Feb-24 17:00 UTC. Time now 2018-Feb-24 23:44 UTC.
Position N 13°54' W 090°48'.

Type: Ship. MMSI: 311082000.

Wind from 120 at 5 knots

Barometer 1012.0 mb
Air temperature 28.4 ° C
Visibility: greater than 5.4 NM

Date/timePositionNaut miles runAvg speedWind from/ knotsBaromVisibWave heightAir tempDewpointWater temp
2018-Feb-24 17:00N 13°54' W 090°48'74 9.2 120 / 51012.0 5.4 28.4
2018-Feb-24 09:00N 13°18' W 089°42'6321.1 290 / 51013.3 28.0 28.0
2018-Feb-24 06:00N 12°54' W 088°42'91 7.0 090 / 251012.010.8 27.0
2018-Feb-23 17:00N 12°30' W 087°12'12614.0 090 / 281014.010.8 30.8
2018-Feb-23 08:00N 10°36' W 086°18'4013.4 050 / 361011.8 26.0 26.0
2018-Feb-23 05:00N 10°00' W 086°00'71 5.5 040 / 32 5.4 27.0
2018-Feb-22 16:00N 10°00' W 084°48'38 5.4 090 / 171012.110.8 32.0
2018-Feb-22 09:00N 09°24' W 084°36'4812.1 270 / 91010.3 28.0 28.0
2018-Feb-22 05:00N 08°42' W 084°12'8011.5 270 / 121011.0 28.0
2018-Feb-21 22:00N 07°48' W 083°12'3511.6 250 / 171011.010.8 28.4 30.0
2018-Feb-21 19:00N 07°30' W 082°42'4816.0 190 / 81011.3 28.0 28.0
2018-Feb-21 16:00N 07°06' W 082°00'19 9.4 070 / 211013.310.8 28.0 29.0
2018-Feb-21 14:00N 07°00' W 081°42'10212.7 070 / 121013.010.8 26.8 29.0
2018-Feb-21 06:00N 07°12' W 080°00'3416.9 350 / 211012.8 24.0 24.0
2018-Feb-21 04:00N 07°36' W 079°36'96 7.6 010 / 181010.0 24.0
2018-Feb-20 15:24N 09°11' W 079°52'511.5
2018-Feb-20 15:00N 09°14' W 079°55'2 3.9
2018-Feb-20 14:31N 09°16' W 079°55'0 0.2
2018-Feb-20 14:00N 09°16' W 079°55'0 0.4
2018-Feb-20 13:20N 09°17' W 079°55'0 0.4
2018-Feb-20 13:00N 09°17' W 079°55'0 0.7
2018-Feb-20 12:30N 09°17' W 079°55'2 3.3
2018-Feb-20 12:01N 09°19' W 079°55'3 5.7
2018-Feb-20 11:31N 09°21' W 079°55'3 6.3
2018-Feb-20 11:00N 09°25' W 079°55'612.0
2018-Feb-20 10:30N 09°30' W 079°54'816.1
2018-Feb-20 10:00N 09°38' W 079°51'6421.2
2018-Feb-20 07:00N 09°54' W 078°48'5417.8 020 / 211012.3 26.0 26.0
2018-Feb-20 04:00N 10°00' W 077°54'8917.9 030 / 351009.0 5.4 26.0
2018-Feb-19 23:00N 10°12' W 076°24'54 9.1 050 / 321010.010.8 26.026.026.0
2018-Feb-19 17:00N 10°24' W 075°30'60 6.7 320 / 121009.0 31.8 31.0
2018-Feb-19 08:00N 11°24' W 075°36'4210.6 110 / 171009.2 25.0
2018-Feb-19 04:00N 12°06' W 075°30'8517.0 060 / 501013.0 5.4 25.0 25.0
2018-Feb-18 23:00N 13°30' W 075°18'10921.7 090 / 451013.010.8 23.023.025.0
2018-Feb-18 18:00N 15°18' W 075°06'1818.0 080 / 371015.2 26.0 26.0
2018-Feb-18 17:00N 15°36' W 075°06'12120.1 070 / 331017.0 5.4 25.7 27.0
2018-Feb-18 11:00N 17°36' W 074°54'9318.6 080 / 301017.010.8 25.025.027.0
2018-Feb-18 06:00N 19°06' W 074°30'4823.9 050 / 191019.0 26.0 26.0
2018-Feb-18 04:00N 19°48' W 074°06'6115.2 060 / 321020.0 5.4 25.8 27.0
2018-Feb-18 00:00N 20°42' W 074°36'23918.4 090 / 261020.010.8 23.023.022.0
2018-Feb-17 11:00N 22°42' W 078°18'6521.7 090 / 24 10.8 24.023.024.0
2018-Feb-17 08:00N 23°24' W 079°12'10418.2 090 / 201019.1 24.0 24.0
2018-Feb-17 02:17N 25°05' W 079°39'619.2
2018-Feb-17 01:59N 25°11' W 079°40'2318.9
2018-Feb-17 00:48N 25°26' W 079°59'518.2
2018-Feb-17 00:31N 25°31' W 080°01'918.2
2018-Feb-17 00:01N 25°40' W 080°02'713.4
2018-Feb-16 23:30N 25°46' W 080°04'5 9.6
2018-Feb-16 23:00N 25°47' W 080°10'1 1.0
2018-Feb-16 22:28N 25°47' W 080°10'0 0.0
2018-Feb-16 21:58N 25°47' W 080°10'0 0.0
2018-Feb-16 21:25N 25°47' W 080°10'0 0.0
2018-Feb-16 20:55N 25°47' W 080°10'0 0.0
2018-Feb-16 20:25N 25°47' W 080°10'0 0.0
2018-Feb-16 19:55N 25°47' W 080°10'0 0.0
2018-Feb-16 19:28N 25°47' W 080°10'0 0.0
2018-Feb-16 18:58N 25°47' W 080°10'0 0.0
2018-Feb-16 18:25N 25°47' W 080°10'0 0.0
2018-Feb-16 17:58N 25°47' W 080°10'0 0.0
2018-Feb-16 17:28N 25°47' W 080°10'0 0.0
2018-Feb-16 16:55N 25°47' W 080°10'0 0.0
2018-Feb-16 16:28N 25°47' W 080°10'0 0.0
2018-Feb-16 15:58N 25°47' W 080°10'0 0.0
2018-Feb-16 15:28N 25°47' W 080°10'0 0.0
2018-Feb-16 14:55N 25°47' W 080°10'0 0.0
2018-Feb-16 14:28N 25°47' W 080°10'0 0.0
2018-Feb-16 13:58N 25°47' W 080°10'0 0.0
2018-Feb-16 13:28N 25°47' W 080°10'0 0.0
2018-Feb-16 12:52N 25°47' W 080°10'0 0.0
2018-Feb-16 12:28N 25°47' W 080°10'0 0.0
2018-Feb-16 11:58N 25°47' W 080°10'0 0.0
2018-Feb-16 11:27N 25°47' W 080°10'1 1.6
2018-Feb-16 11:00N 25°47' W 080°11'2 4.4
2018-Feb-16 10:30N 25°46' W 080°09'511.2
2018-Feb-16 10:00N 25°46' W 080°03'510.0
2018-Feb-16 09:30N 25°46' W 079°57'612.8
2018-Feb-16 09:00N 25°40' W 079°53'2181.6
2018-Feb-16 09:00N 25°42' W 079°54'919.1 110 / 121020.010.8 22.0 24.0
2018-Feb-16 08:30N 25°33' W 079°51'815.9
2018-Feb-16 08:00N 25°25' W 079°49'816.0
2018-Feb-16 07:30N 25°18' W 079°47'9922.0
2018-Feb-16 03:00N 23°42' W 079°18'11419.0 100 / 241022.0 26.0 26.0
2018-Feb-15 21:00N 22°24' W 077°48'14721.0 050 / 301020.0 5.4 25.0 27.0
2018-Feb-15 14:00N 21°12' W 075°30'10320.7 080 / 301022.1 26.0 26.0
2018-Feb-15 09:00N 20°12' W 074°00'13419.1 090 / 631018.0 5.4 25.0 27.0
2018-Feb-15 02:00N 18°06' W 074°48'7819.6 050 / 341020.1 26.0 26.0
2018-Feb-14 22:00N 16°48' W 074°54'2524.7 090 / 451018.010.8 27.027.026.0
2018-Feb-14 21:00N 16°24' W 075°00'   070 / 571016.0 5.4 27.0 27.0

Dump ship's entire track history